sensor_id;sensor_type;location;lat;lon;timestamp;P1;durP1;ratioP1;P2;durP2;ratioP2
33864;SDS011;20159;51.072;13.526;2023-02-26T00:01:01;2.67;;;2.22;;
33864;SDS011;20159;51.072;13.526;2023-02-26T00:03:27;3.30;;;2.38;;
33864;SDS011;20159;51.072;13.526;2023-02-26T00:05:57;2.65;;;1.88;;
33864;SDS011;20159;51.072;13.526;2023-02-26T00:08:24;2.40;;;1.67;;
33864;SDS011;20159;51.072;13.526;2023-02-26T00:10:49;4.35;;;1.92;;
33864;SDS011;20159;51.072;13.526;2023-02-26T00:13:15;4.28;;;3.30;;
33864;SDS011;20159;51.072;13.526;2023-02-26T00:15:40;5.38;;;4.50;;
33864;SDS011;20159;51.072;13.526;2023-02-26T00:18:08;5.25;;;4.43;;
33864;SDS011;20159;51.072;13.526;2023-02-26T00:20:39;5.13;;;4.45;;
33864;SDS011;20159;51.072;13.526;2023-02-26T00:23:07;3.90;;;3.22;;
33864;SDS011;20159;51.072;13.526;2023-02-26T00:25:38;5.00;;;2.50;;
33864;SDS011;20159;51.072;13.526;2023-02-26T00:28:04;3.42;;;2.83;;
33864;SDS011;20159;51.072;13.526;2023-02-26T00:30:31;3.40;;;2.47;;
33864;SDS011;20159;51.072;13.526;2023-02-26T00:32:57;4.07;;;2.47;;
33864;SDS011;20159;51.072;13.526;2023-02-26T00:35:22;3.58;;;3.00;;
33864;SDS011;20159;51.072;13.526;2023-02-26T00:38:04;5.07;;;2.95;;
33864;SDS011;20159;51.072;13.526;2023-02-26T00:40:48;3.10;;;2.28;;
33864;SDS011;20159;51.072;13.526;2023-02-26T00:46:09;3.25;;;2.03;;
33864;SDS011;20159;51.072;13.526;2023-02-26T00:49:02;1.75;;;1.65;;
33864;SDS011;20159;51.072;13.526;2023-02-26T00:52:25;1.92;;;1.70;;
33864;SDS011;20159;51.072;13.526;2023-02-26T00:54:34;2.05;;;1.85;;
33864;SDS011;20159;51.072;13.526;2023-02-26T00:56:59;2.28;;;1.85;;
33864;SDS011;20159;51.072;13.526;2023-02-26T00:59:28;2.00;;;1.80;;
33864;SDS011;20159;51.072;13.526;2023-02-26T01:01:53;2.10;;;1.85;;
33864;SDS011;20159;51.072;13.526;2023-02-26T01:04:20;2.05;;;1.80;;
33864;SDS011;20159;51.072;13.526;2023-02-26T01:06:48;2.75;;;1.77;;
33864;SDS011;20159;51.072;13.526;2023-02-26T01:11:50;2.25;;;1.83;;
33864;SDS011;20159;51.072;13.526;2023-02-26T01:14:16;2.25;;;2.00;;
33864;SDS011;20159;51.072;13.526;2023-02-26T01:17:01;2.05;;;1.85;;
33864;SDS011;20159;51.072;13.526;2023-02-26T01:25:01;3.00;;;2.30;;
33864;SDS011;20159;51.072;13.526;2023-02-26T01:27:29;3.05;;;2.08;;
33864;SDS011;20159;51.072;13.526;2023-02-26T01:29:54;2.97;;;2.40;;
33864;SDS011;20159;51.072;13.526;2023-02-26T01:32:25;3.83;;;2.50;;
33864;SDS011;20159;51.072;13.526;2023-02-26T01:35:10;2.45;;;2.05;;
33864;SDS011;20159;51.072;13.526;2023-02-26T01:43:24;4.80;;;2.10;;
33864;SDS011;20159;51.072;13.526;2023-02-26T01:48:53;2.85;;;2.47;;
33864;SDS011;20159;51.072;13.526;2023-02-26T01:54:07;3.00;;;2.38;;
33864;SDS011;20159;51.072;13.526;2023-02-26T01:56:33;2.80;;;2.60;;
33864;SDS011;20159;51.072;13.526;2023-02-26T01:58:58;3.10;;;2.53;;
33864;SDS011;20159;51.072;13.526;2023-02-26T02:01:24;2.78;;;2.40;;
33864;SDS011;20159;51.072;13.526;2023-02-26T02:03:50;2.75;;;2.40;;
33864;SDS011;20159;51.072;13.526;2023-02-26T02:06:18;3.38;;;2.80;;
33864;SDS011;20159;51.072;13.526;2023-02-26T02:08:46;2.30;;;2.10;;
33864;SDS011;20159;51.072;13.526;2023-02-26T02:11:12;3.03;;;2.60;;
33864;SDS011;20159;51.072;13.526;2023-02-26T02:16:42;3.00;;;2.63;;
33864;SDS011;20159;51.072;13.526;2023-02-26T02:19:32;3.38;;;2.65;;
33864;SDS011;20159;51.072;13.526;2023-02-26T02:22:31;3.20;;;2.90;;
33864;SDS011;20159;51.072;13.526;2023-02-26T02:25:30;3.13;;;2.80;;
33864;SDS011;20159;51.072;13.526;2023-02-26T02:28:30;4.15;;;3.00;;
33864;SDS011;20159;51.072;13.526;2023-02-26T02:33:33;3.90;;;3.10;;
33864;SDS011;20159;51.072;13.526;2023-02-26T02:36:13;3.45;;;3.15;;
33864;SDS011;20159;51.072;13.526;2023-02-26T02:38:48;3.35;;;3.05;;
33864;SDS011;20159;51.072;13.526;2023-02-26T02:41:21;4.10;;;3.30;;
33864;SDS011;20159;51.072;13.526;2023-02-26T02:43:51;3.45;;;3.15;;
33864;SDS011;20159;51.072;13.526;2023-02-26T02:46:19;4.70;;;3.22;;
33864;SDS011;20159;51.072;13.526;2023-02-26T02:48:59;4.07;;;3.67;;
33864;SDS011;20159;51.072;13.526;2023-02-26T02:51:29;3.58;;;3.28;;
33864;SDS011;20159;51.072;13.526;2023-02-26T02:54:03;4.00;;;3.55;;
33864;SDS011;20159;51.072;13.526;2023-02-26T02:56:53;3.90;;;3.58;;
33864;SDS011;20159;51.072;13.526;2023-02-26T02:59:44;3.90;;;3.47;;
33864;SDS011;20159;51.072;13.526;2023-02-26T03:02:26;4.20;;;3.70;;
33864;SDS011;20159;51.072;13.526;2023-02-26T03:05:11;3.75;;;3.42;;
33864;SDS011;20159;51.072;13.526;2023-02-26T03:07:50;4.70;;;3.75;;
33864;SDS011;20159;51.072;13.526;2023-02-26T03:10:19;4.28;;;3.72;;
33864;SDS011;20159;51.072;13.526;2023-02-26T03:12:45;3.58;;;3.15;;
33864;SDS011;20159;51.072;13.526;2023-02-26T03:15:10;5.95;;;4.03;;
33864;SDS011;20159;51.072;13.526;2023-02-26T03:17:40;3.95;;;3.65;;
33864;SDS011;20159;51.072;13.526;2023-02-26T03:20:25;4.18;;;3.78;;
33864;SDS011;20159;51.072;13.526;2023-02-26T03:23:08;4.57;;;3.40;;
33864;SDS011;20159;51.072;13.526;2023-02-26T03:25:53;3.33;;;3.05;;
33864;SDS011;20159;51.072;13.526;2023-02-26T03:28:32;4.05;;;3.35;;
33864;SDS011;20159;51.072;13.526;2023-02-26T03:31:02;4.15;;;3.60;;
33864;SDS011;20159;51.072;13.526;2023-02-26T03:36:35;3.55;;;3.25;;
33864;SDS011;20159;51.072;13.526;2023-02-26T03:39:07;4.18;;;3.78;;
33864;SDS011;20159;51.072;13.526;2023-02-26T03:44:19;3.85;;;3.47;;
33864;SDS011;20159;51.072;13.526;2023-02-26T03:46:59;4.05;;;3.65;;
33864;SDS011;20159;51.072;13.526;2023-02-26T03:49:31;4.00;;;3.70;;
33864;SDS011;20159;51.072;13.526;2023-02-26T03:52:04;4.35;;;3.95;;
33864;SDS011;20159;51.072;13.526;2023-02-26T03:54:32;4.10;;;3.70;;
33864;SDS011;20159;51.072;13.526;2023-02-26T03:57:14;4.10;;;3.55;;
33864;SDS011;20159;51.072;13.526;2023-02-26T03:59:40;5.03;;;3.95;;
33864;SDS011;20159;51.072;13.526;2023-02-26T04:02:16;4.60;;;3.63;;
33864;SDS011;20159;51.072;13.526;2023-02-26T04:05:07;5.43;;;3.72;;
33864;SDS011;20159;51.072;13.526;2023-02-26T04:07:37;5.15;;;4.10;;
33864;SDS011;20159;51.072;13.526;2023-02-26T04:10:03;4.40;;;3.63;;
33864;SDS011;20159;51.072;13.526;2023-02-26T04:12:31;4.78;;;4.28;;
33864;SDS011;20159;51.072;13.526;2023-02-26T04:14:57;5.00;;;4.28;;
33864;SDS011;20159;51.072;13.526;2023-02-26T04:17:23;4.82;;;4.30;;
33864;SDS011;20159;51.072;13.526;2023-02-26T04:19:48;4.68;;;4.28;;
33864;SDS011;20159;51.072;13.526;2023-02-26T04:22:14;4.63;;;4.22;;
33864;SDS011;20159;51.072;13.526;2023-02-26T04:24:40;4.90;;;4.40;;
33864;SDS011;20159;51.072;13.526;2023-02-26T04:27:05;4.50;;;4.10;;
33864;SDS011;20159;51.072;13.526;2023-02-26T04:29:31;5.45;;;4.28;;
33864;SDS011;20159;51.072;13.526;2023-02-26T04:31:57;4.78;;;4.30;;
33864;SDS011;20159;51.072;13.526;2023-02-26T04:34:22;5.50;;;4.18;;
33864;SDS011;20159;51.072;13.526;2023-02-26T04:36:48;4.47;;;3.85;;
33864;SDS011;20159;51.072;13.526;2023-02-26T04:39:14;6.65;;;4.30;;
33864;SDS011;20159;51.072;13.526;2023-02-26T04:41:39;4.30;;;3.65;;
33864;SDS011;20159;51.072;13.526;2023-02-26T04:44:05;4.95;;;4.03;;
33864;SDS011;20159;51.072;13.526;2023-02-26T04:46:31;4.13;;;3.72;;
33864;SDS011;20159;51.072;13.526;2023-02-26T04:48:57;5.25;;;4.10;;
33864;SDS011;20159;51.072;13.526;2023-02-26T04:51:22;3.90;;;3.60;;
33864;SDS011;20159;51.072;13.526;2023-02-26T04:53:48;5.00;;;3.95;;
33864;SDS011;20159;51.072;13.526;2023-02-26T04:56:14;5.18;;;3.97;;
33864;SDS011;20159;51.072;13.526;2023-02-26T04:58:40;4.88;;;4.30;;
33864;SDS011;20159;51.072;13.526;2023-02-26T05:01:05;4.95;;;4.30;;
33864;SDS011;20159;51.072;13.526;2023-02-26T05:03:31;4.25;;;3.50;;
33864;SDS011;20159;51.072;13.526;2023-02-26T05:05:56;4.68;;;3.97;;
33864;SDS011;20159;51.072;13.526;2023-02-26T05:08:22;5.28;;;3.95;;
33864;SDS011;20159;51.072;13.526;2023-02-26T05:10:49;6.38;;;3.83;;
33864;SDS011;20159;51.072;13.526;2023-02-26T05:13:15;4.72;;;4.10;;
33864;SDS011;20159;51.072;13.526;2023-02-26T05:15:40;5.13;;;4.32;;
33864;SDS011;20159;51.072;13.526;2023-02-26T05:18:06;4.53;;;3.95;;
33864;SDS011;20159;51.072;13.526;2023-02-26T05:20:31;6.07;;;4.10;;
33864;SDS011;20159;51.072;13.526;2023-02-26T05:22:57;6.10;;;3.65;;
33864;SDS011;20159;51.072;13.526;2023-02-26T05:25:23;4.15;;;3.72;;
33864;SDS011;20159;51.072;13.526;2023-02-26T05:27:48;4.28;;;3.60;;
33864;SDS011;20159;51.072;13.526;2023-02-26T05:30:14;3.88;;;3.33;;
33864;SDS011;20159;51.072;13.526;2023-02-26T05:32:40;8.07;;;4.20;;
33864;SDS011;20159;51.072;13.526;2023-02-26T05:35:06;4.40;;;4.00;;
33864;SDS011;20159;51.072;13.526;2023-02-26T05:37:32;5.82;;;4.00;;
33864;SDS011;20159;51.072;13.526;2023-02-26T05:39:58;4.30;;;3.90;;
33864;SDS011;20159;51.072;13.526;2023-02-26T05:42:23;6.50;;;4.57;;
33864;SDS011;20159;51.072;13.526;2023-02-26T05:44:49;4.53;;;4.00;;
33864;SDS011;20159;51.072;13.526;2023-02-26T05:47:15;7.45;;;4.57;;
33864;SDS011;20159;51.072;13.526;2023-02-26T05:49:40;5.57;;;4.75;;
33864;SDS011;20159;51.072;13.526;2023-02-26T05:52:06;5.80;;;4.05;;
33864;SDS011;20159;51.072;13.526;2023-02-26T05:54:31;5.75;;;4.80;;
33864;SDS011;20159;51.072;13.526;2023-02-26T05:56:57;4.90;;;4.50;;
33864;SDS011;20159;51.072;13.526;2023-02-26T05:59:22;5.97;;;4.70;;
33864;SDS011;20159;51.072;13.526;2023-02-26T06:01:48;8.05;;;4.18;;
33864;SDS011;20159;51.072;13.526;2023-02-26T06:04:14;5.03;;;4.50;;
33864;SDS011;20159;51.072;13.526;2023-02-26T06:06:39;5.82;;;4.57;;
33864;SDS011;20159;51.072;13.526;2023-02-26T06:09:05;6.00;;;4.60;;
33864;SDS011;20159;51.072;13.526;2023-02-26T06:11:31;5.97;;;4.70;;
33864;SDS011;20159;51.072;13.526;2023-02-26T06:13:56;7.47;;;4.75;;
33864;SDS011;20159;51.072;13.526;2023-02-26T06:16:22;7.03;;;5.03;;
33864;SDS011;20159;51.072;13.526;2023-02-26T06:18:48;7.10;;;4.78;;
33864;SDS011;20159;51.072;13.526;2023-02-26T06:21:13;6.40;;;5.82;;
33864;SDS011;20159;51.072;13.526;2023-02-26T06:23:39;7.68;;;6.05;;
33864;SDS011;20159;51.072;13.526;2023-02-26T06:26:05;8.05;;;5.47;;
33864;SDS011;20159;51.072;13.526;2023-02-26T06:28:31;6.05;;;4.95;;
33864;SDS011;20159;51.072;13.526;2023-02-26T06:30:57;7.38;;;5.38;;
33864;SDS011;20159;51.072;13.526;2023-02-26T06:33:23;5.78;;;5.00;;
33864;SDS011;20159;51.072;13.526;2023-02-26T06:35:48;6.55;;;5.30;;
33864;SDS011;20159;51.072;13.526;2023-02-26T06:38:14;6.55;;;4.43;;
33864;SDS011;20159;51.072;13.526;2023-02-26T06:40:40;5.60;;;4.10;;
33864;SDS011;20159;51.072;13.526;2023-02-26T06:43:06;5.07;;;4.30;;
33864;SDS011;20159;51.072;13.526;2023-02-26T06:45:32;6.00;;;4.20;;
33864;SDS011;20159;51.072;13.526;2023-02-26T06:47:57;5.78;;;4.20;;
33864;SDS011;20159;51.072;13.526;2023-02-26T06:50:23;5.70;;;3.80;;
33864;SDS011;20159;51.072;13.526;2023-02-26T06:52:48;5.25;;;3.83;;
33864;SDS011;20159;51.072;13.526;2023-02-26T06:55:14;4.45;;;3.70;;
33864;SDS011;20159;51.072;13.526;2023-02-26T06:57:39;4.78;;;3.80;;
33864;SDS011;20159;51.072;13.526;2023-02-26T07:00:05;4.38;;;3.95;;
33864;SDS011;20159;51.072;13.526;2023-02-26T07:02:31;5.20;;;3.92;;
33864;SDS011;20159;51.072;13.526;2023-02-26T07:04:57;4.18;;;3.25;;
33864;SDS011;20159;51.072;13.526;2023-02-26T07:07:23;4.70;;;3.70;;
33864;SDS011;20159;51.072;13.526;2023-02-26T07:09:49;6.13;;;3.60;;
33864;SDS011;20159;51.072;13.526;2023-02-26T07:12:14;4.07;;;3.40;;
33864;SDS011;20159;51.072;13.526;2023-02-26T07:14:40;5.75;;;3.58;;
33864;SDS011;20159;51.072;13.526;2023-02-26T07:17:07;3.65;;;3.25;;
33864;SDS011;20159;51.072;13.526;2023-02-26T07:19:32;8.88;;;3.70;;
33864;SDS011;20159;51.072;13.526;2023-02-26T07:21:58;6.05;;;3.58;;
33864;SDS011;20159;51.072;13.526;2023-02-26T07:24:24;4.55;;;3.78;;
33864;SDS011;20159;51.072;13.526;2023-02-26T07:26:49;5.07;;;3.50;;
33864;SDS011;20159;51.072;13.526;2023-02-26T07:29:15;4.70;;;3.30;;
33864;SDS011;20159;51.072;13.526;2023-02-26T07:31:40;5.35;;;3.33;;
33864;SDS011;20159;51.072;13.526;2023-02-26T07:34:06;5.15;;;2.95;;
33864;SDS011;20159;51.072;13.526;2023-02-26T07:36:32;4.85;;;2.90;;
33864;SDS011;20159;51.072;13.526;2023-02-26T07:38:58;3.90;;;2.47;;
33864;SDS011;20159;51.072;13.526;2023-02-26T07:41:23;3.53;;;2.60;;
33864;SDS011;20159;51.072;13.526;2023-02-26T07:43:49;4.70;;;2.33;;
33864;SDS011;20159;51.072;13.526;2023-02-26T07:46:14;4.28;;;2.65;;
33864;SDS011;20159;51.072;13.526;2023-02-26T07:48:40;5.78;;;2.75;;
33864;SDS011;20159;51.072;13.526;2023-02-26T07:51:05;4.72;;;2.47;;
33864;SDS011;20159;51.072;13.526;2023-02-26T07:53:32;5.63;;;3.00;;
33864;SDS011;20159;51.072;13.526;2023-02-26T07:55:58;4.88;;;3.72;;
33864;SDS011;20159;51.072;13.526;2023-02-26T07:58:23;5.85;;;3.15;;
33864;SDS011;20159;51.072;13.526;2023-02-26T08:00:49;5.10;;;2.58;;
33864;SDS011;20159;51.072;13.526;2023-02-26T08:03:16;4.80;;;2.55;;
33864;SDS011;20159;51.072;13.526;2023-02-26T08:05:42;3.35;;;2.60;;
33864;SDS011;20159;51.072;13.526;2023-02-26T08:08:08;3.58;;;2.60;;
33864;SDS011;20159;51.072;13.526;2023-02-26T08:10:34;3.60;;;2.75;;
33864;SDS011;20159;51.072;13.526;2023-02-26T08:12:59;3.72;;;2.75;;
33864;SDS011;20159;51.072;13.526;2023-02-26T08:15:25;4.03;;;2.75;;
33864;SDS011;20159;51.072;13.526;2023-02-26T08:17:51;4.25;;;2.70;;
33864;SDS011;20159;51.072;13.526;2023-02-26T08:20:17;4.60;;;2.70;;
33864;SDS011;20159;51.072;13.526;2023-02-26T08:22:43;4.07;;;2.53;;
33864;SDS011;20159;51.072;13.526;2023-02-26T08:25:09;3.45;;;2.42;;
33864;SDS011;20159;51.072;13.526;2023-02-26T08:27:34;7.25;;;2.53;;
33864;SDS011;20159;51.072;13.526;2023-02-26T08:30:00;3.33;;;2.00;;
33864;SDS011;20159;51.072;13.526;2023-02-26T08:32:26;3.40;;;2.13;;
33864;SDS011;20159;51.072;13.526;2023-02-26T08:34:52;4.30;;;2.42;;
33864;SDS011;20159;51.072;13.526;2023-02-26T08:37:17;3.92;;;2.30;;
33864;SDS011;20159;51.072;13.526;2023-02-26T08:39:45;3.17;;;2.42;;
33864;SDS011;20159;51.072;13.526;2023-02-26T08:42:11;3.22;;;2.10;;
33864;SDS011;20159;51.072;13.526;2023-02-26T08:44:40;3.20;;;2.50;;
33864;SDS011;20159;51.072;13.526;2023-02-26T08:47:05;6.20;;;2.50;;
33864;SDS011;20159;51.072;13.526;2023-02-26T08:49:31;3.83;;;2.60;;
33864;SDS011;20159;51.072;13.526;2023-02-26T08:51:56;4.22;;;2.47;;
33864;SDS011;20159;51.072;13.526;2023-02-26T08:54:22;4.95;;;2.63;;
33864;SDS011;20159;51.072;13.526;2023-02-26T08:56:47;4.65;;;2.70;;
33864;SDS011;20159;51.072;13.526;2023-02-26T08:59:13;4.68;;;2.28;;
33864;SDS011;20159;51.072;13.526;2023-02-26T09:01:39;5.93;;;2.10;;
33864;SDS011;20159;51.072;13.526;2023-02-26T09:04:04;4.63;;;2.30;;
33864;SDS011;20159;51.072;13.526;2023-02-26T09:06:30;2.75;;;2.05;;
33864;SDS011;20159;51.072;13.526;2023-02-26T09:08:55;5.95;;;2.70;;
33864;SDS011;20159;51.072;13.526;2023-02-26T09:11:21;4.50;;;2.35;;
33864;SDS011;20159;51.072;13.526;2023-02-26T09:13:47;3.72;;;2.33;;
33864;SDS011;20159;51.072;13.526;2023-02-26T09:16:12;6.90;;;3.05;;
33864;SDS011;20159;51.072;13.526;2023-02-26T09:18:38;5.47;;;2.60;;
33864;SDS011;20159;51.072;13.526;2023-02-26T09:21:03;6.20;;;2.53;;
33864;SDS011;20159;51.072;13.526;2023-02-26T09:23:29;5.40;;;3.08;;
33864;SDS011;20159;51.072;13.526;2023-02-26T09:25:55;3.90;;;2.72;;
33864;SDS011;20159;51.072;13.526;2023-02-26T09:28:22;5.85;;;2.70;;
33864;SDS011;20159;51.072;13.526;2023-02-26T09:30:51;3.58;;;2.35;;
33864;SDS011;20159;51.072;13.526;2023-02-26T09:33:18;4.45;;;2.17;;
33864;SDS011;20159;51.072;13.526;2023-02-26T09:35:46;4.15;;;2.45;;
33864;SDS011;20159;51.072;13.526;2023-02-26T09:38:12;5.05;;;3.10;;
33864;SDS011;20159;51.072;13.526;2023-02-26T09:40:42;4.85;;;2.70;;
33864;SDS011;20159;51.072;13.526;2023-02-26T09:43:27;4.20;;;2.72;;
33864;SDS011;20159;51.072;13.526;2023-02-26T09:52:07;2.80;;;2.50;;
33864;SDS011;20159;51.072;13.526;2023-02-26T09:54:51;4.85;;;2.63;;
33864;SDS011;20159;51.072;13.526;2023-02-26T09:57:32;6.93;;;2.55;;
33864;SDS011;20159;51.072;13.526;2023-02-26T09:59:59;4.63;;;2.10;;
33864;SDS011;20159;51.072;13.526;2023-02-26T10:05:37;4.35;;;2.33;;
33864;SDS011;20159;51.072;13.526;2023-02-26T10:08:15;4.90;;;2.00;;
33864;SDS011;20159;51.072;13.526;2023-02-26T10:10:49;5.00;;;2.15;;
33864;SDS011;20159;51.072;13.526;2023-02-26T10:13:31;4.20;;;2.17;;
33864;SDS011;20159;51.072;13.526;2023-02-26T10:16:09;3.67;;;2.20;;
33864;SDS011;20159;51.072;13.526;2023-02-26T10:18:41;4.07;;;2.30;;
33864;SDS011;20159;51.072;13.526;2023-02-26T10:21:19;4.82;;;2.22;;
33864;SDS011;20159;51.072;13.526;2023-02-26T10:23:54;3.90;;;2.22;;
33864;SDS011;20159;51.072;13.526;2023-02-26T10:26:23;2.88;;;2.08;;
33864;SDS011;20159;51.072;13.526;2023-02-26T10:29:14;4.90;;;2.20;;
33864;SDS011;20159;51.072;13.526;2023-02-26T10:34:30;3.85;;;2.30;;
33864;SDS011;20159;51.072;13.526;2023-02-26T10:37:17;4.93;;;2.67;;
33864;SDS011;20159;51.072;13.526;2023-02-26T10:42:25;5.10;;;2.78;;
33864;SDS011;20159;51.072;13.526;2023-02-26T10:45:15;6.07;;;4.15;;
33864;SDS011;20159;51.072;13.526;2023-02-26T10:48:06;7.65;;;4.97;;
33864;SDS011;20159;51.072;13.526;2023-02-26T10:50:36;8.07;;;4.90;;
33864;SDS011;20159;51.072;13.526;2023-02-26T10:53:12;6.30;;;4.95;;
33864;SDS011;20159;51.072;13.526;2023-02-26T10:55:40;7.57;;;3.70;;
33864;SDS011;20159;51.072;13.526;2023-02-26T10:58:12;5.05;;;3.90;;
33864;SDS011;20159;51.072;13.526;2023-02-26T11:00:41;5.63;;;3.80;;
33864;SDS011;20159;51.072;13.526;2023-02-26T11:03:17;4.53;;;2.85;;
33864;SDS011;20159;51.072;13.526;2023-02-26T11:05:53;4.00;;;2.60;;
33864;SDS011;20159;51.072;13.526;2023-02-26T11:08:27;5.32;;;3.08;;
33864;SDS011;20159;51.072;13.526;2023-02-26T11:11:00;2.90;;;2.22;;
33864;SDS011;20159;51.072;13.526;2023-02-26T11:13:29;4.47;;;2.75;;
33864;SDS011;20159;51.072;13.526;2023-02-26T11:15:58;6.28;;;2.95;;
33864;SDS011;20159;51.072;13.526;2023-02-26T11:18:28;6.25;;;3.20;;
33864;SDS011;20159;51.072;13.526;2023-02-26T11:20:56;6.20;;;3.15;;
33864;SDS011;20159;51.072;13.526;2023-02-26T11:23:24;6.45;;;3.70;;
33864;SDS011;20159;51.072;13.526;2023-02-26T11:25:53;3.97;;;2.42;;
33864;SDS011;20159;51.072;13.526;2023-02-26T11:28:37;4.07;;;2.50;;
33864;SDS011;20159;51.072;13.526;2023-02-26T11:31:09;4.22;;;2.30;;
33864;SDS011;20159;51.072;13.526;2023-02-26T11:33:42;5.13;;;2.28;;
33864;SDS011;20159;51.072;13.526;2023-02-26T11:36:21;3.55;;;1.80;;
33864;SDS011;20159;51.072;13.526;2023-02-26T11:38:53;4.40;;;1.70;;
33864;SDS011;20159;51.072;13.526;2023-02-26T11:41:31;2.40;;;1.58;;
33864;SDS011;20159;51.072;13.526;2023-02-26T11:44:11;3.05;;;1.95;;
33864;SDS011;20159;51.072;13.526;2023-02-26T11:46:43;4.80;;;1.92;;
33864;SDS011;20159;51.072;13.526;2023-02-26T11:49:13;4.35;;;1.90;;
33864;SDS011;20159;51.072;13.526;2023-02-26T11:51:45;4.38;;;1.90;;
33864;SDS011;20159;51.072;13.526;2023-02-26T11:54:24;5.88;;;2.17;;
33864;SDS011;20159;51.072;13.526;2023-02-26T11:56:53;3.50;;;1.85;;
33864;SDS011;20159;51.072;13.526;2023-02-26T11:59:26;2.65;;;1.70;;
33864;SDS011;20159;51.072;13.526;2023-02-26T12:01:55;4.28;;;1.80;;
33864;SDS011;20159;51.072;13.526;2023-02-26T12:04:26;2.90;;;1.77;;
33864;SDS011;20159;51.072;13.526;2023-02-26T12:06:52;2.97;;;2.15;;
33864;SDS011;20159;51.072;13.526;2023-02-26T12:09:19;5.40;;;3.53;;
33864;SDS011;20159;51.072;13.526;2023-02-26T12:20:43;3.45;;;1.65;;
33864;SDS011;20159;51.072;13.526;2023-02-26T12:37:06;4.57;;;2.30;;
33864;SDS011;20159;51.072;13.526;2023-02-26T12:39:49;4.07;;;2.95;;
33864;SDS011;20159;51.072;13.526;2023-02-26T12:42:34;2.85;;;1.90;;
33864;SDS011;20159;51.072;13.526;2023-02-26T12:48:28;4.18;;;2.30;;
33864;SDS011;20159;51.072;13.526;2023-02-26T12:56:51;3.37;;;1.93;;
33864;SDS011;20159;51.072;13.526;2023-02-26T12:59:41;3.80;;;2.10;;
33864;SDS011;20159;51.072;13.526;2023-02-26T13:02:35;5.05;;;2.50;;
33864;SDS011;20159;51.072;13.526;2023-02-26T13:05:26;3.03;;;1.88;;
33864;SDS011;20159;51.072;13.526;2023-02-26T13:08:11;4.68;;;2.20;;
33864;SDS011;20159;51.072;13.526;2023-02-26T13:10:53;2.90;;;1.98;;
33864;SDS011;20159;51.072;13.526;2023-02-26T13:13:43;3.78;;;2.38;;
33864;SDS011;20159;51.072;13.526;2023-02-26T13:16:49;4.15;;;2.58;;
33864;SDS011;20159;51.072;13.526;2023-02-26T13:24:58;4.65;;;2.53;;
33864;SDS011;20159;51.072;13.526;2023-02-26T13:27:34;5.28;;;2.58;;
33864;SDS011;20159;51.072;13.526;2023-02-26T13:32:56;3.97;;;2.30;;
33864;SDS011;20159;51.072;13.526;2023-02-26T13:35:36;4.80;;;2.90;;
33864;SDS011;20159;51.072;13.526;2023-02-26T13:38:23;6.78;;;2.90;;
33864;SDS011;20159;51.072;13.526;2023-02-26T13:41:20;5.53;;;3.25;;
33864;SDS011;20159;51.072;13.526;2023-02-26T13:44:01;4.07;;;2.60;;
33864;SDS011;20159;51.072;13.526;2023-02-26T13:47:16;3.60;;;2.08;;
33864;SDS011;20159;51.072;13.526;2023-02-26T13:52:34;4.22;;;2.15;;
33864;SDS011;20159;51.072;13.526;2023-02-26T13:55:02;3.35;;;1.90;;
33864;SDS011;20159;51.072;13.526;2023-02-26T14:00:07;5.32;;;2.35;;
33864;SDS011;20159;51.072;13.526;2023-02-26T14:02:50;3.55;;;1.70;;
33864;SDS011;20159;51.072;13.526;2023-02-26T14:05:28;2.70;;;1.75;;
33864;SDS011;20159;51.072;13.526;2023-02-26T14:11:05;6.28;;;2.45;;
33864;SDS011;20159;51.072;13.526;2023-02-26T14:14:04;2.33;;;1.75;;
33864;SDS011;20159;51.072;13.526;2023-02-26T14:16:32;2.53;;;1.67;;
33864;SDS011;20159;51.072;13.526;2023-02-26T14:19:03;2.80;;;2.00;;
33864;SDS011;20159;51.072;13.526;2023-02-26T14:24:33;4.25;;;2.65;;
33864;SDS011;20159;51.072;13.526;2023-02-26T14:29:39;5.93;;;2.22;;
33864;SDS011;20159;51.072;13.526;2023-02-26T14:32:32;2.83;;;2.00;;
33864;SDS011;20159;51.072;13.526;2023-02-26T14:35:33;4.60;;;2.60;;
33864;SDS011;20159;51.072;13.526;2023-02-26T14:41:04;3.55;;;2.67;;
33864;SDS011;20159;51.072;13.526;2023-02-26T14:43:39;3.35;;;2.00;;
33864;SDS011;20159;51.072;13.526;2023-02-26T14:46:08;2.10;;;1.60;;
33864;SDS011;20159;51.072;13.526;2023-02-26T14:48:34;5.28;;;2.03;;
33864;SDS011;20159;51.072;13.526;2023-02-26T14:51:09;2.45;;;1.40;;
33864;SDS011;20159;51.072;13.526;2023-02-26T14:56:23;3.35;;;1.48;;
33864;SDS011;20159;51.072;13.526;2023-02-26T15:07:37;4.13;;;2.47;;
33864;SDS011;20159;51.072;13.526;2023-02-26T15:10:22;4.90;;;2.13;;
33864;SDS011;20159;51.072;13.526;2023-02-26T15:13:13;5.68;;;2.30;;
33864;SDS011;20159;51.072;13.526;2023-02-26T15:16:21;4.22;;;2.30;;
33864;SDS011;20159;51.072;13.526;2023-02-26T15:19:10;2.17;;;1.52;;
33864;SDS011;20159;51.072;13.526;2023-02-26T15:21:48;3.50;;;1.70;;
33864;SDS011;20159;51.072;13.526;2023-02-26T15:24:27;5.78;;;1.30;;
33864;SDS011;20159;51.072;13.526;2023-02-26T15:26:56;5.85;;;3.92;;
33864;SDS011;20159;51.072;13.526;2023-02-26T15:29:27;4.00;;;1.88;;
33864;SDS011;20159;51.072;13.526;2023-02-26T15:32:01;5.28;;;3.20;;
33864;SDS011;20159;51.072;13.526;2023-02-26T15:34:40;5.75;;;3.88;;
33864;SDS011;20159;51.072;13.526;2023-02-26T15:37:14;5.75;;;4.32;;
33864;SDS011;20159;51.072;13.526;2023-02-26T15:39:47;5.13;;;3.67;;
33864;SDS011;20159;51.072;13.526;2023-02-26T15:42:17;4.47;;;2.70;;
33864;SDS011;20159;51.072;13.526;2023-02-26T15:44:45;7.88;;;6.35;;
33864;SDS011;20159;51.072;13.526;2023-02-26T15:47:12;4.88;;;3.08;;
33864;SDS011;20159;51.072;13.526;2023-02-26T15:49:41;6.05;;;5.00;;
33864;SDS011;20159;51.072;13.526;2023-02-26T15:52:11;3.00;;;2.60;;
33864;SDS011;20159;51.072;13.526;2023-02-26T15:54:44;4.32;;;3.92;;
33864;SDS011;20159;51.072;13.526;2023-02-26T15:57:13;8.23;;;7.43;;
33864;SDS011;20159;51.072;13.526;2023-02-26T15:59:42;5.75;;;5.07;;
33864;SDS011;20159;51.072;13.526;2023-02-26T16:02:11;3.75;;;2.80;;
33864;SDS011;20159;51.072;13.526;2023-02-26T16:04:39;3.40;;;2.28;;
33864;SDS011;20159;51.072;13.526;2023-02-26T16:07:05;3.47;;;2.42;;
33864;SDS011;20159;51.072;13.526;2023-02-26T16:09:34;4.05;;;2.05;;
33864;SDS011;20159;51.072;13.526;2023-02-26T16:12:03;3.42;;;2.38;;
33864;SDS011;20159;51.072;13.526;2023-02-26T16:14:40;3.25;;;1.70;;
33864;SDS011;20159;51.072;13.526;2023-02-26T16:17:11;4.85;;;2.15;;
33864;SDS011;20159;51.072;13.526;2023-02-26T16:19:44;3.97;;;2.03;;
33864;SDS011;20159;51.072;13.526;2023-02-26T16:22:46;6.35;;;3.15;;
33864;SDS011;20159;51.072;13.526;2023-02-26T16:25:12;5.88;;;3.58;;
33864;SDS011;20159;51.072;13.526;2023-02-26T16:27:43;6.45;;;3.83;;
33864;SDS011;20159;51.072;13.526;2023-02-26T16:30:13;7.93;;;3.72;;
33864;SDS011;20159;51.072;13.526;2023-02-26T16:32:42;8.02;;;4.25;;
33864;SDS011;20159;51.072;13.526;2023-02-26T16:35:10;12.50;;;6.32;;
33864;SDS011;20159;51.072;13.526;2023-02-26T16:37:42;11.60;;;5.75;;
33864;SDS011;20159;51.072;13.526;2023-02-26T16:40:24;11.88;;;5.75;;
33864;SDS011;20159;51.072;13.526;2023-02-26T16:43:00;10.85;;;4.30;;
33864;SDS011;20159;51.072;13.526;2023-02-26T16:48:03;6.85;;;4.47;;
33864;SDS011;20159;51.072;13.526;2023-02-26T16:50:52;7.10;;;5.03;;
33864;SDS011;20159;51.072;13.526;2023-02-26T16:53:29;10.75;;;6.72;;
33864;SDS011;20159;51.072;13.526;2023-02-26T16:55:58;11.35;;;6.28;;
33864;SDS011;20159;51.072;13.526;2023-02-26T16:58:24;7.60;;;4.63;;